Curtin, Oregon
Current Conditions -  °F | °C
As of 8:08 PM on Sunday 25 Jan 2015 (Local Time) from KEUG Reporting Station
Moderate Fog Moderate Fog  
Wind Chill: 45°   Ceiling: 200
Heat Index: 45°   Visibility: 0.12mi
Dew Point: 44°   Wind: 3mph
Humidity: 97%   Direction: 170°S
Pressure: 30.03"   Gusts: NA
Location:  43.72°N, 123.21°W
Report Text: KEUG 260408Z 17003KT 1/8SM R16R/1600V2000FT FG VV002 07/07 A3003 RMK AO2 SFC VIS 1/4 T00720067 $
Loading
Personal Weather Stations






























Interactive Weather Map New forecast layout! Learn more

10-Day Weather Forecast

Advertisements
Track Severe Weather on mobile